sensor_id;sensor_type;location;lat;lon;timestamp;noise_LAeq;noise_LA_min;noise_LA_max;noise_LA01;noise_LA95
43512;Laerm;34054;52.100;5.116;2023-01-04T00:00:15;62.55;43.13;84.86;;
43512;Laerm;34054;52.100;5.116;2023-01-04T00:00:46;57.22;48.05;67.62;;
43512;Laerm;34054;52.100;5.116;2023-01-04T00:01:21;59.61;43.86;82.18;;
43512;Laerm;34054;52.100;5.116;2023-01-04T00:01:54;58.35;42.54;77.20;;
43512;Laerm;34054;52.100;5.116;2023-01-04T00:02:27;57.39;43.48;80.53;;
43512;Laerm;34054;52.100;5.116;2023-01-04T00:02:58;59.07;43.38;80.91;;
43512;Laerm;34054;52.100;5.116;2023-01-04T00:03:32;63.75;44.95;84.06;;
43512;Laerm;34054;52.100;5.116;2023-01-04T00:04:04;61.51;48.40;88.33;;
43512;Laerm;34054;52.100;5.116;2023-01-04T00:04:35;57.84;45.45;77.89;;
43512;Laerm;34054;52.100;5.116;2023-01-04T00:05:08;58.35;44.65;73.58;;
43512;Laerm;34054;52.100;5.116;2023-01-04T00:05:40;60.32;44.71;82.41;;
43512;Laerm;34054;52.100;5.116;2023-01-04T00:06:15;58.54;46.54;78.04;;
43512;Laerm;34054;52.100;5.116;2023-01-04T00:06:48;57.91;45.76;74.96;;
43512;Laerm;34054;52.100;5.116;2023-01-04T00:07:19;64.10;48.41;88.75;;
43512;Laerm;34054;52.100;5.116;2023-01-04T00:07:51;63.95;53.46;84.88;;
43512;Laerm;34054;52.100;5.116;2023-01-04T00:08:23;66.53;52.39;85.02;;
43512;Laerm;34054;52.100;5.116;2023-01-04T00:08:55;63.30;50.41;83.39;;
43512;Laerm;34054;52.100;5.116;2023-01-04T00:09:27;64.32;51.35;84.20;;
43512;Laerm;34054;52.100;5.116;2023-01-04T00:09:59;62.55;50.12;84.19;;
43512;Laerm;34054;52.100;5.116;2023-01-04T00:10:31;68.28;51.37;89.64;;
43512;Laerm;34054;52.100;5.116;2023-01-04T00:11:06;64.16;49.82;81.48;;
43512;Laerm;34054;52.100;5.116;2023-01-04T00:11:38;60.38;49.17;80.63;;
43512;Laerm;34054;52.100;5.116;2023-01-04T00:12:10;63.11;49.22;88.73;;
43512;Laerm;34054;52.100;5.116;2023-01-04T00:12:42;60.34;46.18;77.69;;
43512;Laerm;34054;52.100;5.116;2023-01-04T00:13:14;59.46;48.14;72.30;;
43512;Laerm;34054;52.100;5.116;2023-01-04T00:13:47;60.91;50.00;78.17;;
43512;Laerm;34054;52.100;5.116;2023-01-04T00:14:20;61.10;49.17;78.69;;
43512;Laerm;34054;52.100;5.116;2023-01-04T00:14:52;59.31;47.46;77.45;;
43512;Laerm;34054;52.100;5.116;2023-01-04T00:15:23;61.15;47.75;83.86;;
43512;Laerm;34054;52.100;5.116;2023-01-04T00:15:56;65.17;52.76;81.04;;
43512;Laerm;34054;52.100;5.116;2023-01-04T00:16:28;62.75;48.38;84.96;;
43512;Laerm;34054;52.100;5.116;2023-01-04T00:17:01;64.43;47.61;83.38;;
43512;Laerm;34054;52.100;5.116;2023-01-04T00:17:32;57.97;47.41;71.90;;
43512;Laerm;34054;52.100;5.116;2023-01-04T00:18:04;61.23;48.93;85.65;;
43512;Laerm;34054;52.100;5.116;2023-01-04T00:18:37;61.90;51.63;81.21;;
43512;Laerm;34054;52.100;5.116;2023-01-04T00:19:11;62.85;51.36;78.50;;
43512;Laerm;34054;52.100;5.116;2023-01-04T00:19:42;61.70;50.49;83.59;;
43512;Laerm;34054;52.100;5.116;2023-01-04T00:20:15;66.62;48.72;90.38;;
43512;Laerm;34054;52.100;5.116;2023-01-04T00:20:48;61.58;49.36;84.39;;
43512;Laerm;34054;52.100;5.116;2023-01-04T00:21:23;62.39;47.15;86.37;;
43512;Laerm;34054;52.100;5.116;2023-01-04T00:21:56;58.28;48.06;76.60;;
43512;Laerm;34054;52.100;5.116;2023-01-04T00:22:32;58.31;46.09;79.40;;
43512;Laerm;34054;52.100;5.116;2023-01-04T00:23:05;59.03;46.10;79.91;;
43512;Laerm;34054;52.100;5.116;2023-01-04T00:23:37;58.46;45.51;76.64;;
43512;Laerm;34054;52.100;5.116;2023-01-04T00:24:09;66.49;49.13;87.11;;
43512;Laerm;34054;52.100;5.116;2023-01-04T00:24:45;57.42;45.83;77.16;;
43512;Laerm;34054;52.100;5.116;2023-01-04T00:25:16;63.77;44.87;84.05;;
43512;Laerm;34054;52.100;5.116;2023-01-04T00:25:48;58.86;46.79;74.52;;
43512;Laerm;34054;52.100;5.116;2023-01-04T00:26:23;57.24;45.95;71.55;;
43512;Laerm;34054;52.100;5.116;2023-01-04T00:26:54;61.83;48.06;79.13;;
43512;Laerm;34054;52.100;5.116;2023-01-04T00:27:27;58.44;45.61;77.30;;
43512;Laerm;34054;52.100;5.116;2023-01-04T00:27:59;58.36;47.25;78.23;;
43512;Laerm;34054;52.100;5.116;2023-01-04T00:28:30;58.38;45.20;74.18;;
43512;Laerm;34054;52.100;5.116;2023-01-04T00:29:09;57.04;44.40;77.48;;
43512;Laerm;34054;52.100;5.116;2023-01-04T00:29:41;58.26;44.72;80.68;;
43512;Laerm;34054;52.100;5.116;2023-01-04T00:30:14;57.00;44.20;77.66;;
43512;Laerm;34054;52.100;5.116;2023-01-04T00:30:46;56.80;47.14;75.96;;
43512;Laerm;34054;52.100;5.116;2023-01-04T00:31:17;61.82;45.09;80.89;;
43512;Laerm;34054;52.100;5.116;2023-01-04T00:31:50;62.85;50.84;79.31;;
43512;Laerm;34054;52.100;5.116;2023-01-04T00:32:21;58.49;46.19;76.07;;
43512;Laerm;34054;52.100;5.116;2023-01-04T00:32:53;57.18;44.54;73.37;;
43512;Laerm;34054;52.100;5.116;2023-01-04T00:33:26;58.35;44.91;76.48;;
43512;Laerm;34054;52.100;5.116;2023-01-04T00:34:00;57.38;46.53;74.81;;
43512;Laerm;34054;52.100;5.116;2023-01-04T00:34:32;59.26;45.88;77.45;;
43512;Laerm;34054;52.100;5.116;2023-01-04T00:35:05;61.30;45.36;88.43;;
43512;Laerm;34054;52.100;5.116;2023-01-04T00:35:36;57.46;44.77;77.67;;
43512;Laerm;34054;52.100;5.116;2023-01-04T00:36:12;63.56;45.31;79.03;;
43512;Laerm;34054;52.100;5.116;2023-01-04T00:36:47;59.46;46.13;82.80;;
43512;Laerm;34054;52.100;5.116;2023-01-04T00:37:19;61.06;44.33;77.50;;
43512;Laerm;34054;52.100;5.116;2023-01-04T00:37:51;61.23;45.76;80.13;;
43512;Laerm;34054;52.100;5.116;2023-01-04T00:38:23;57.25;43.56;71.91;;
43512;Laerm;34054;52.100;5.116;2023-01-04T00:38:56;56.54;44.81;70.79;;
43512;Laerm;34054;52.100;5.116;2023-01-04T00:39:37;56.51;43.35;78.63;;
43512;Laerm;34054;52.100;5.116;2023-01-04T00:40:11;57.06;42.70;75.60;;
43512;Laerm;34054;52.100;5.116;2023-01-04T00:40:42;59.17;44.37;83.89;;
43512;Laerm;34054;52.100;5.116;2023-01-04T00:41:14;57.89;46.73;72.63;;
43512;Laerm;34054;52.100;5.116;2023-01-04T00:41:49;58.68;47.62;76.54;;
43512;Laerm;34054;52.100;5.116;2023-01-04T00:42:25;61.38;46.41;82.23;;
43512;Laerm;34054;52.100;5.116;2023-01-04T00:42:56;56.56;45.37;69.61;;
43512;Laerm;34054;52.100;5.116;2023-01-04T00:43:28;56.66;44.77;70.63;;
43512;Laerm;34054;52.100;5.116;2023-01-04T00:44:01;58.18;46.03;77.91;;
43512;Laerm;34054;52.100;5.116;2023-01-04T00:44:34;58.24;46.16;75.27;;
43512;Laerm;34054;52.100;5.116;2023-01-04T00:45:08;57.87;46.26;73.69;;
43512;Laerm;34054;52.100;5.116;2023-01-04T00:45:41;58.86;45.63;75.46;;
43512;Laerm;34054;52.100;5.116;2023-01-04T00:46:13;58.56;45.18;76.22;;
43512;Laerm;34054;52.100;5.116;2023-01-04T00:46:46;72.89;48.88;92.42;;
43512;Laerm;34054;52.100;5.116;2023-01-04T00:47:18;58.48;46.25;76.56;;
43512;Laerm;34054;52.100;5.116;2023-01-04T00:47:50;66.80;46.21;85.73;;
43512;Laerm;34054;52.100;5.116;2023-01-04T00:48:22;62.11;46.52;85.57;;
43512;Laerm;34054;52.100;5.116;2023-01-04T00:48:54;57.92;44.96;73.66;;
43512;Laerm;34054;52.100;5.116;2023-01-04T00:49:27;61.20;46.95;83.35;;
43512;Laerm;34054;52.100;5.116;2023-01-04T00:49:59;60.92;46.17;77.79;;
43512;Laerm;34054;52.100;5.116;2023-01-04T00:50:31;64.28;46.36;81.15;;
43512;Laerm;34054;52.100;5.116;2023-01-04T00:51:04;63.86;51.19;81.74;;
43512;Laerm;34054;52.100;5.116;2023-01-04T00:51:38;60.91;49.39;79.85;;
43512;Laerm;34054;52.100;5.116;2023-01-04T00:52:14;62.62;46.79;90.10;;
43512;Laerm;34054;52.100;5.116;2023-01-04T00:52:48;60.74;46.67;77.16;;
43512;Laerm;34054;52.100;5.116;2023-01-04T00:53:20;58.33;48.22;72.86;;
43512;Laerm;34054;52.100;5.116;2023-01-04T00:53:52;59.52;48.17;76.36;;
43512;Laerm;34054;52.100;5.116;2023-01-04T00:54:24;59.11;47.04;80.43;;
43512;Laerm;34054;52.100;5.116;2023-01-04T00:54:56;60.14;47.72;82.70;;
43512;Laerm;34054;52.100;5.116;2023-01-04T00:55:29;67.95;48.46;85.72;;
43512;Laerm;34054;52.100;5.116;2023-01-04T00:56:00;60.53;48.74;82.26;;
43512;Laerm;34054;52.100;5.116;2023-01-04T00:56:33;68.96;48.54;95.99;;
43512;Laerm;34054;52.100;5.116;2023-01-04T00:57:06;60.76;47.31;85.32;;
43512;Laerm;34054;52.100;5.116;2023-01-04T00:57:39;60.19;46.70;82.21;;
43512;Laerm;34054;52.100;5.116;2023-01-04T00:58:11;60.26;45.80;77.02;;
43512;Laerm;34054;52.100;5.116;2023-01-04T00:58:43;59.30;47.32;80.52;;
43512;Laerm;34054;52.100;5.116;2023-01-04T00:59:18;58.37;45.50;79.57;;
43512;Laerm;34054;52.100;5.116;2023-01-04T00:59:50;72.19;47.57;101.38;;
43512;Laerm;34054;52.100;5.116;2023-01-04T01:00:23;63.27;48.77;90.81;;
43512;Laerm;34054;52.100;5.116;2023-01-04T01:00:54;64.06;46.90;90.01;;
43512;Laerm;34054;52.100;5.116;2023-01-04T01:01:28;59.69;47.79;79.50;;
43512;Laerm;34054;52.100;5.116;2023-01-04T01:02:01;61.92;47.51;84.41;;
43512;Laerm;34054;52.100;5.116;2023-01-04T01:02:32;75.05;48.11;95.49;;
43512;Laerm;34054;52.100;5.116;2023-01-04T01:03:04;62.31;50.18;81.76;;
43512;Laerm;34054;52.100;5.116;2023-01-04T01:03:37;60.34;48.94;78.69;;
43512;Laerm;34054;52.100;5.116;2023-01-04T01:04:12;60.61;47.53;81.37;;
43512;Laerm;34054;52.100;5.116;2023-01-04T01:04:44;58.77;46.07;75.83;;
43512;Laerm;34054;52.100;5.116;2023-01-04T01:05:17;61.98;46.21;81.04;;
43512;Laerm;34054;52.100;5.116;2023-01-04T01:05:49;58.13;45.17;75.94;;
43512;Laerm;34054;52.100;5.116;2023-01-04T01:06:21;58.75;44.23;80.91;;
43512;Laerm;34054;52.100;5.116;2023-01-04T01:06:55;57.73;44.56;71.88;;
43512;Laerm;34054;52.100;5.116;2023-01-04T01:07:27;64.16;46.73;81.95;;
43512;Laerm;34054;52.100;5.116;2023-01-04T01:07:59;57.33;44.96;74.36;;
43512;Laerm;34054;52.100;5.116;2023-01-04T01:08:53;56.78;45.74;79.74;;
43512;Laerm;34054;52.100;5.116;2023-01-04T01:09:25;58.53;44.99;71.81;;
43512;Laerm;34054;52.100;5.116;2023-01-04T01:09:57;65.86;45.09;88.57;;
43512;Laerm;34054;52.100;5.116;2023-01-04T01:10:29;58.39;45.19;81.15;;
43512;Laerm;34054;52.100;5.116;2023-01-04T01:11:06;56.46;43.20;76.06;;
43512;Laerm;34054;52.100;5.116;2023-01-04T01:11:40;71.68;48.37;90.47;;
43512;Laerm;34054;52.100;5.116;2023-01-04T01:12:11;56.26;42.47;68.61;;
43512;Laerm;34054;52.100;5.116;2023-01-04T01:12:44;55.87;43.60;64.43;;
43512;Laerm;34054;52.100;5.116;2023-01-04T01:13:16;59.82;45.39;80.53;;
43512;Laerm;34054;52.100;5.116;2023-01-04T01:13:48;56.44;43.28;75.10;;
43512;Laerm;34054;52.100;5.116;2023-01-04T01:14:24;56.24;43.17;74.10;;
43512;Laerm;34054;52.100;5.116;2023-01-04T01:14:55;57.20;43.77;74.76;;
43512;Laerm;34054;52.100;5.116;2023-01-04T01:15:27;63.82;41.49;92.44;;
43512;Laerm;34054;52.100;5.116;2023-01-04T01:16:04;56.61;43.85;76.96;;
43512;Laerm;34054;52.100;5.116;2023-01-04T01:16:37;56.12;43.99;67.49;;
43512;Laerm;34054;52.100;5.116;2023-01-04T01:17:09;57.02;41.58;70.37;;
43512;Laerm;34054;52.100;5.116;2023-01-04T01:17:41;56.75;42.52;70.54;;
43512;Laerm;34054;52.100;5.116;2023-01-04T01:18:13;60.55;44.22;79.23;;
43512;Laerm;34054;52.100;5.116;2023-01-04T01:18:46;56.55;44.90;69.65;;
43512;Laerm;34054;52.100;5.116;2023-01-04T01:19:17;56.28;43.62;73.09;;
43512;Laerm;34054;52.100;5.116;2023-01-04T01:19:50;56.77;41.88;75.88;;
43512;Laerm;34054;52.100;5.116;2023-01-04T01:20:22;59.74;45.75;82.45;;
43512;Laerm;34054;52.100;5.116;2023-01-04T01:20:53;57.30;46.25;77.19;;
43512;Laerm;34054;52.100;5.116;2023-01-04T01:21:26;55.70;42.82;68.24;;
43512;Laerm;34054;52.100;5.116;2023-01-04T01:21:59;66.56;47.68;90.23;;
43512;Laerm;34054;52.100;5.116;2023-01-04T01:22:34;58.15;43.61;76.77;;
43512;Laerm;34054;52.100;5.116;2023-01-04T01:23:07;58.84;42.24;78.27;;
43512;Laerm;34054;52.100;5.116;2023-01-04T01:23:39;55.84;41.98;67.20;;
43512;Laerm;34054;52.100;5.116;2023-01-04T01:24:16;56.28;42.61;79.65;;
43512;Laerm;34054;52.100;5.116;2023-01-04T01:24:49;67.62;44.57;86.40;;
43512;Laerm;34054;52.100;5.116;2023-01-04T01:25:20;58.38;43.82;78.68;;
43512;Laerm;34054;52.100;5.116;2023-01-04T01:25:52;58.17;43.35;79.04;;
43512;Laerm;34054;52.100;5.116;2023-01-04T01:26:25;58.26;42.47;74.63;;
43512;Laerm;34054;52.100;5.116;2023-01-04T01:26:57;55.36;41.20;63.23;;
43512;Laerm;34054;52.100;5.116;2023-01-04T01:27:29;56.58;42.81;73.45;;
43512;Laerm;34054;52.100;5.116;2023-01-04T01:28:00;56.52;42.89;74.18;;
43512;Laerm;34054;52.100;5.116;2023-01-04T01:28:34;62.96;47.31;84.49;;
43512;Laerm;34054;52.100;5.116;2023-01-04T01:29:07;56.82;42.65;75.91;;
43512;Laerm;34054;52.100;5.116;2023-01-04T01:29:38;58.48;42.63;74.66;;
43512;Laerm;34054;52.100;5.116;2023-01-04T01:30:11;56.65;42.37;73.82;;
43512;Laerm;34054;52.100;5.116;2023-01-04T01:30:43;57.10;43.18;75.18;;
43512;Laerm;34054;52.100;5.116;2023-01-04T01:31:17;68.03;45.94;87.30;;
43512;Laerm;34054;52.100;5.116;2023-01-04T01:31:49;64.17;45.85;88.72;;
43512;Laerm;34054;52.100;5.116;2023-01-04T01:32:21;59.99;47.10;76.99;;
43512;Laerm;34054;52.100;5.116;2023-01-04T01:32:53;56.66;46.02;67.47;;
43512;Laerm;34054;52.100;5.116;2023-01-04T01:33:25;68.80;47.87;88.26;;
43512;Laerm;34054;52.100;5.116;2023-01-04T01:34:00;59.74;42.38;79.73;;
43512;Laerm;34054;52.100;5.116;2023-01-04T01:34:32;64.68;47.49;82.69;;
43512;Laerm;34054;52.100;5.116;2023-01-04T01:35:05;55.99;43.35;64.71;;
43512;Laerm;34054;52.100;5.116;2023-01-04T01:35:37;58.11;42.68;71.04;;
43512;Laerm;34054;52.100;5.116;2023-01-04T01:36:10;60.51;44.78;79.81;;
43512;Laerm;34054;52.100;5.116;2023-01-04T01:36:42;63.45;45.31;85.33;;
43512;Laerm;34054;52.100;5.116;2023-01-04T01:37:15;61.84;44.09;82.43;;
43512;Laerm;34054;52.100;5.116;2023-01-04T01:37:48;70.71;43.75;89.58;;
43512;Laerm;34054;52.100;5.116;2023-01-04T01:38:19;62.84;45.20;84.33;;
43512;Laerm;34054;52.100;5.116;2023-01-04T01:38:53;60.98;43.25;86.60;;
43512;Laerm;34054;52.100;5.116;2023-01-04T01:39:24;63.54;44.90;85.29;;
43512;Laerm;34054;52.100;5.116;2023-01-04T01:39:56;57.01;42.39;79.65;;
43512;Laerm;34054;52.100;5.116;2023-01-04T01:40:28;62.69;46.86;82.39;;
43512;Laerm;34054;52.100;5.116;2023-01-04T01:41:00;62.88;42.32;80.41;;
43512;Laerm;34054;52.100;5.116;2023-01-04T01:41:34;68.54;43.46;90.82;;
43512;Laerm;34054;52.100;5.116;2023-01-04T01:42:18;55.65;42.34;67.10;;
43512;Laerm;34054;52.100;5.116;2023-01-04T01:42:50;73.96;43.48;91.52;;
43512;Laerm;34054;52.100;5.116;2023-01-04T01:43:50;54.48;41.32;76.50;;
43512;Laerm;34054;52.100;5.116;2023-01-04T01:45:08;63.94;40.79;96.59;;
43512;Laerm;34054;52.100;5.116;2023-01-04T01:45:55;66.52;44.74;87.29;;
43512;Laerm;34054;52.100;5.116;2023-01-04T01:46:35;64.92;45.28;85.83;;
43512;Laerm;34054;52.100;5.116;2023-01-04T01:47:14;72.03;45.59;92.41;;
43512;Laerm;34054;52.100;5.116;2023-01-04T01:47:49;59.79;43.92;78.69;;
43512;Laerm;34054;52.100;5.116;2023-01-04T01:48:27;65.44;49.72;86.54;;
43512;Laerm;34054;52.100;5.116;2023-01-04T01:49:05;62.77;45.13;82.24;;
43512;Laerm;34054;52.100;5.116;2023-01-04T01:49:45;59.93;46.71;82.75;;
43512;Laerm;34054;52.100;5.116;2023-01-04T01:50:26;62.24;47.67;82.90;;
43512;Laerm;34054;52.100;5.116;2023-01-04T01:51:02;59.56;45.99;79.36;;
43512;Laerm;34054;52.100;5.116;2023-01-04T01:51:35;65.05;46.86;88.63;;
43512;Laerm;34054;52.100;5.116;2023-01-04T01:52:12;57.22;45.80;71.27;;
43512;Laerm;34054;52.100;5.116;2023-01-04T01:52:48;65.62;45.18;88.59;;
43512;Laerm;34054;52.100;5.116;2023-01-04T01:53:23;65.48;46.03;85.41;;
43512;Laerm;34054;52.100;5.116;2023-01-04T01:54:03;59.73;47.38;73.62;;
43512;Laerm;34054;52.100;5.116;2023-01-04T01:54:44;64.52;48.86;83.16;;
43512;Laerm;34054;52.100;5.116;2023-01-04T01:55:16;60.57;45.68;85.03;;
43512;Laerm;34054;52.100;5.116;2023-01-04T01:55:50;61.13;44.20;79.73;;
43512;Laerm;34054;52.100;5.116;2023-01-04T01:56:25;62.53;45.26;83.82;;
43512;Laerm;34054;52.100;5.116;2023-01-04T01:57:03;59.02;47.14;79.15;;
43512;Laerm;34054;52.100;5.116;2023-01-04T01:57:37;58.97;45.65;76.01;;
43512;Laerm;34054;52.100;5.116;2023-01-04T01:58:17;58.03;42.98;76.37;;
43512;Laerm;34054;52.100;5.116;2023-01-04T01:58:54;64.24;44.06;91.92;;
43512;Laerm;34054;52.100;5.116;2023-01-04T01:59:31;56.60;44.43;74.29;;
43512;Laerm;34054;52.100;5.116;2023-01-04T02:00:10;59.57;43.66;79.17;;
43512;Laerm;34054;52.100;5.116;2023-01-04T02:00:42;65.88;41.95;85.92;;
43512;Laerm;34054;52.100;5.116;2023-01-04T02:01:15;60.30;44.19;80.43;;
43512;Laerm;34054;52.100;5.116;2023-01-04T02:01:47;57.08;41.86;75.86;;
43512;Laerm;34054;52.100;5.116;2023-01-04T02:02:18;55.86;42.71;66.29;;
43512;Laerm;34054;52.100;5.116;2023-01-04T02:03:03;58.10;41.41;80.38;;
43512;Laerm;34054;52.100;5.116;2023-01-04T02:03:40;54.97;40.84;65.54;;
43512;Laerm;34054;52.100;5.116;2023-01-04T02:04:14;59.44;43.98;81.24;;
43512;Laerm;34054;52.100;5.116;2023-01-04T02:04:50;57.58;43.31;72.86;;
43512;Laerm;34054;52.100;5.116;2023-01-04T02:05:25;64.89;42.34;84.86;;
43512;Laerm;34054;52.100;5.116;2023-01-04T02:06:01;57.46;45.01;77.21;;
43512;Laerm;34054;52.100;5.116;2023-01-04T02:06:41;55.74;43.41;67.45;;
43512;Laerm;34054;52.100;5.116;2023-01-04T02:07:19;59.25;46.54;82.81;;
43512;Laerm;34054;52.100;5.116;2023-01-04T02:07:53;60.02;45.22;72.04;;
43512;Laerm;34054;52.100;5.116;2023-01-04T02:08:27;56.72;45.95;66.32;;
43512;Laerm;34054;52.100;5.116;2023-01-04T02:09:01;57.03;43.87;68.53;;
43512;Laerm;34054;52.100;5.116;2023-01-04T02:09:33;56.00;40.65;67.45;;
43512;Laerm;34054;52.100;5.116;2023-01-04T02:10:06;56.10;42.48;67.56;;
43512;Laerm;34054;52.100;5.116;2023-01-04T02:10:38;56.61;43.04;69.49;;
43512;Laerm;34054;52.100;5.116;2023-01-04T02:11:11;72.15;43.12;101.49;;
43512;Laerm;34054;52.100;5.116;2023-01-04T02:11:42;59.86;44.04;79.08;;
43512;Laerm;34054;52.100;5.116;2023-01-04T02:12:14;64.05;41.10;88.84;;
43512;Laerm;34054;52.100;5.116;2023-01-04T02:12:49;55.49;40.67;64.32;;
43512;Laerm;34054;52.100;5.116;2023-01-04T02:13:26;57.31;40.68;72.35;;
43512;Laerm;34054;52.100;5.116;2023-01-04T02:14:21;62.97;39.85;86.58;;
43512;Laerm;34054;52.100;5.116;2023-01-04T02:14:59;55.26;41.03;68.75;;
43512;Laerm;34054;52.100;5.116;2023-01-04T02:15:43;55.04;40.17;62.70;;
43512;Laerm;34054;52.100;5.116;2023-01-04T02:16:33;57.62;41.23;76.81;;
43512;Laerm;34054;52.100;5.116;2023-01-04T02:17:16;59.17;43.35;79.63;;
43512;Laerm;34054;52.100;5.116;2023-01-04T02:18:02;63.57;41.58;84.56;;
43512;Laerm;34054;52.100;5.116;2023-01-04T02:18:48;61.45;41.66;83.25;;
43512;Laerm;34054;52.100;5.116;2023-01-04T02:20:14;60.25;41.25;83.25;;
43512;Laerm;34054;52.100;5.116;2023-01-04T02:20:58;54.55;40.63;67.03;;
43512;Laerm;34054;52.100;5.116;2023-01-04T02:21:49;63.06;39.76;83.52;;
43512;Laerm;34054;52.100;5.116;2023-01-04T02:24:19;54.89;40.42;76.07;;
43512;Laerm;34054;52.100;5.116;2023-01-04T02:25:28;54.45;39.78;78.83;;
43512;Laerm;34054;52.100;5.116;2023-01-04T02:27:08;53.10;40.48;74.20;;
43512;Laerm;34054;52.100;5.116;2023-01-04T02:27:54;55.12;40.02;81.73;;
43512;Laerm;34054;52.100;5.116;2023-01-04T02:28:48;53.82;39.81;64.79;;
43512;Laerm;34054;52.100;5.116;2023-01-04T02:31:30;66.52;40.59;89.04;;
43512;Laerm;34054;52.100;5.116;2023-01-04T02:32:11;63.76;44.09;81.01;;
43512;Laerm;34054;52.100;5.116;2023-01-04T02:32:58;56.33;42.34;76.37;;
43512;Laerm;34054;52.100;5.116;2023-01-04T02:33:47;53.68;39.14;58.98;;
43512;Laerm;34054;52.100;5.116;2023-01-04T02:34:29;57.66;40.45;70.50;;
43512;Laerm;34054;52.100;5.116;2023-01-04T02:35:18;55.40;41.16;71.41;;
43512;Laerm;34054;52.100;5.116;2023-01-04T02:36:01;66.61;46.59;95.13;;
43512;Laerm;34054;52.100;5.116;2023-01-04T02:36:47;62.79;41.24;86.72;;
43512;Laerm;34054;52.100;5.116;2023-01-04T02:37:34;60.11;40.28;78.12;;
43512;Laerm;34054;52.100;5.116;2023-01-04T02:38:19;55.63;39.47;71.99;;
43512;Laerm;34054;52.100;5.116;2023-01-04T02:39:13;59.32;40.30;81.39;;
43512;Laerm;34054;52.100;5.116;2023-01-04T02:39:59;58.67;42.26;83.07;;
43512;Laerm;34054;52.100;5.116;2023-01-04T02:40:47;56.08;39.27;72.83;;
43512;Laerm;34054;52.100;5.116;2023-01-04T02:41:31;64.45;44.21;86.08;;
43512;Laerm;34054;52.100;5.116;2023-01-04T02:42:12;64.62;42.72;82.56;;
43512;Laerm;34054;52.100;5.116;2023-01-04T02:42:57;62.93;41.68;83.47;;
43512;Laerm;34054;52.100;5.116;2023-01-04T02:43:55;64.82;42.32;85.45;;
43512;Laerm;34054;52.100;5.116;2023-01-04T02:44:52;55.68;38.50;74.73;;
43512;Laerm;34054;52.100;5.116;2023-01-04T02:45:34;54.74;38.67;65.64;;
43512;Laerm;34054;52.100;5.116;2023-01-04T02:46:14;55.92;40.01;70.28;;
43512;Laerm;34054;52.100;5.116;2023-01-04T02:46:56;55.62;40.59;71.74;;
43512;Laerm;34054;52.100;5.116;2023-01-04T02:47:34;55.57;39.56;69.25;;
43512;Laerm;34054;52.100;5.116;2023-01-04T02:48:36;54.86;39.43;77.87;;
43512;Laerm;34054;52.100;5.116;2023-01-04T02:49:26;54.22;39.55;63.29;;
43512;Laerm;34054;52.100;5.116;2023-01-04T02:50:24;61.55;39.64;83.12;;
43512;Laerm;34054;52.100;5.116;2023-01-04T02:51:02;69.73;43.79;93.02;;
43512;Laerm;34054;52.100;5.116;2023-01-04T02:51:37;63.04;42.79;82.62;;
43512;Laerm;34054;52.100;5.116;2023-01-04T02:52:10;61.79;42.55;83.46;;
43512;Laerm;34054;52.100;5.116;2023-01-04T02:52:42;59.99;43.10;79.18;;
43512;Laerm;34054;52.100;5.116;2023-01-04T02:53:18;62.46;40.41;83.62;;
43512;Laerm;34054;52.100;5.116;2023-01-04T02:53:52;62.82;42.06;85.94;;
43512;Laerm;34054;52.100;5.116;2023-01-04T02:54:27;56.28;40.21;70.56;;
43512;Laerm;34054;52.100;5.116;2023-01-04T02:55:06;58.36;39.48;81.83;;
43512;Laerm;34054;52.100;5.116;2023-01-04T02:55:49;54.94;39.31;69.92;;
43512;Laerm;34054;52.100;5.116;2023-01-04T02:56:29;60.93;41.56;79.67;;
43512;Laerm;34054;52.100;5.116;2023-01-04T02:57:25;68.36;39.42;89.20;;
43512;Laerm;34054;52.100;5.116;2023-01-04T02:58:07;56.02;38.12;73.07;;
43512;Laerm;34054;52.100;5.116;2023-01-04T02:59:01;54.24;38.07;72.38;;
43512;Laerm;34054;52.100;5.116;2023-01-04T02:59:57;58.95;42.09;80.91;;
43512;Laerm;34054;52.100;5.116;2023-01-04T03:00:51;60.47;38.69;81.70;;
43512;Laerm;34054;52.100;5.116;2023-01-04T03:01:57;56.98;38.69;78.69;;
43512;Laerm;34054;52.100;5.116;2023-01-04T03:03:16;52.95;38.56;76.88;;
43512;Laerm;34054;52.100;5.116;2023-01-04T03:04:29;59.11;39.46;84.42;;
43512;Laerm;34054;52.100;5.116;2023-01-04T03:05:30;61.54;40.95;83.01;;
43512;Laerm;34054;52.100;5.116;2023-01-04T03:06:38;61.79;38.08;85.87;;
43512;Laerm;34054;52.100;5.116;2023-01-04T03:07:25;53.86;39.57;59.26;;
43512;Laerm;34054;52.100;5.116;2023-01-04T03:08:07;57.19;40.77;79.39;;
43512;Laerm;34054;52.100;5.116;2023-01-04T03:08:54;60.35;40.82;84.78;;
43512;Laerm;34054;52.100;5.116;2023-01-04T03:09:33;62.09;39.52;81.78;;
43512;Laerm;34054;52.100;5.116;2023-01-04T03:10:11;55.98;39.53;70.63;;
43512;Laerm;34054;52.100;5.116;2023-01-04T03:10:54;79.07;43.73;96.59;;
43512;Laerm;34054;52.100;5.116;2023-01-04T03:11:39;63.60;44.34;85.53;;
43512;Laerm;34054;52.100;5.116;2023-01-04T03:12:43;61.28;41.19;87.18;;
43512;Laerm;34054;52.100;5.116;2023-01-04T03:13:22;55.58;39.57;69.65;;
43512;Laerm;34054;52.100;5.116;2023-01-04T03:14:01;55.23;39.59;65.95;;
43512;Laerm;34054;52.100;5.116;2023-01-04T03:14:40;59.37;40.71;78.01;;
43512;Laerm;34054;52.100;5.116;2023-01-04T03:15:22;77.32;42.15;97.46;;
43512;Laerm;34054;52.100;5.116;2023-01-04T03:16:00;67.38;42.81;86.78;;
43512;Laerm;34054;52.100;5.116;2023-01-04T03:16:38;54.60;40.50;79.72;;
43512;Laerm;34054;52.100;5.116;2023-01-04T03:17:20;56.68;40.13;76.35;;
43512;Laerm;34054;52.100;5.116;2023-01-04T03:17:56;59.68;39.35;80.79;;
43512;Laerm;34054;52.100;5.116;2023-01-04T03:18:35;63.09;41.52;84.28;;
43512;Laerm;34054;52.100;5.116;2023-01-04T03:19:11;56.17;38.58;71.34;;
43512;Laerm;34054;52.100;5.116;2023-01-04T03:20:11;56.21;41.52;74.86;;
43512;Laerm;34054;52.100;5.116;2023-01-04T03:20:47;56.85;41.98;75.32;;
43512;Laerm;34054;52.100;5.116;2023-01-04T03:21:23;58.79;43.49;77.52;;
43512;Laerm;34054;52.100;5.116;2023-01-04T03:21:55;57.07;39.75;79.62;;
43512;Laerm;34054;52.100;5.116;2023-01-04T03:22:34;58.81;39.18;78.41;;
43512;Laerm;34054;52.100;5.116;2023-01-04T03:23:31;67.02;40.86;87.35;;
43512;Laerm;34054;52.100;5.116;2023-01-04T03:24:23;63.82;41.48;87.02;;
43512;Laerm;34054;52.100;5.116;2023-01-04T03:25:17;55.10;41.16;72.71;;
43512;Laerm;34054;52.100;5.116;2023-01-04T03:26:14;67.60;39.29;87.53;;
43512;Laerm;34054;52.100;5.116;2023-01-04T03:27:07;55.72;39.00;71.98;;
43512;Laerm;34054;52.100;5.116;2023-01-04T03:27:58;76.32;44.55;98.62;;
43512;Laerm;34054;52.100;5.116;2023-01-04T03:28:50;60.54;38.52;83.89;;
43512;Laerm;34054;52.100;5.116;2023-01-04T03:29:46;65.18;40.04;84.69;;
43512;Laerm;34054;52.100;5.116;2023-01-04T03:31:00;58.68;39.77;83.20;;
43512;Laerm;34054;52.100;5.116;2023-01-04T03:32:00;53.42;37.95;68.14;;
43512;Laerm;34054;52.100;5.116;2023-01-04T03:32:58;67.86;43.01;88.23;;
43512;Laerm;34054;52.100;5.116;2023-01-04T03:33:51;61.73;41.27;80.74;;
43512;Laerm;34054;52.100;5.116;2023-01-04T03:34:41;63.61;40.85;83.88;;
43512;Laerm;34054;52.100;5.116;2023-01-04T03:35:41;64.55;38.74;83.27;;
43512;Laerm;34054;52.100;5.116;2023-01-04T03:36:28;61.28;40.52;83.81;;
43512;Laerm;34054;52.100;5.116;2023-01-04T03:37:09;63.20;42.97;84.04;;